Ruskin, Nebraska
Current Conditions -  °F | °C
As of 5:15 PM on Wednesday 22 Oct 2014 (Local Time) from KHJH Reporting Station
Heavy Rain Heavy Rain  
Wind Chill: 64°   Ceiling: 5500
Heat Index: 64°   Visibility: 4mi
Dew Point: 59°   Wind: 7mph
Humidity: 84%   Direction: 290°WNW
Pressure: 30.02"   Gusts: 17mph
Location:  40.14°N, 97.87°W
Report Text: KHJH 222215Z AUTO 29006G15KT 4SM +RA SCT015 SCT021 OVC055 18/15 A3002 RMK AO2 P0003 T01760148
Loading
Personal Weather Stations






























Interactive Weather Map
Tropical Storm Tracking
New forecast layout! Learn more

10-Day Weather Forecast

Advertisements
Track Severe Weather on mobile